Aviation Digital Data Service (ADDS)

Output produced by METARs form (0527 UTC 21 January 2019)
found at http://www.aviationweather.gov/metar/data/
 
METAR text: VOVZ 210500Z VRB02KT 2000 HZ NSC 27/18 Q1017 BECMG 3000 HZ
Conditions at: VOVZ (VIZAGAPATAM , IN) observed 0500 UTC 21 January 2019
Temperature: 27.0°C (81°F)
Dewpoint: 18.0°C (64°F) [RH = 58%]
Pressure (altimeter): 30.03 inches Hg (1017.0 mb)
Winds: variable direction winds at 2 MPH (2 knots; 1.0 m/s)
Visibility: 1.24 miles (2.00 km)
Ceiling: at least 12,000 feet AGL
Clouds: sky clear below 12,000 feet AGL
Weather: HZ  (haze)

METAR text: VOVZ 210430Z VRB02KT 1800 HZ NSC 26/19 Q1017 BECMG 2000 HZ
Conditions at: VOVZ (VIZAGAPATAM , IN) observed 0430 UTC 21 January 2019
Temperature: 26.0°C (79°F)
Dewpoint: 19.0°C (66°F) [RH = 65%]
Pressure (altimeter): 30.03 inches Hg (1017.0 mb)
Winds: variable direction winds at 2 MPH (2 knots; 1.0 m/s)
Visibility: 1.12 miles (1.80 km)
Ceiling: at least 12,000 feet AGL
Clouds: sky clear below 12,000 feet AGL
Weather: HZ  (haze)

METAR text: VOVZ 210400Z VRB02KT 1600 BR NSC 24/19 Q1017 BECMG 2000 HZ
Conditions at: VOVZ (VIZAGAPATAM , IN) observed 0400 UTC 21 January 2019
Temperature: 24.0°C (75°F)
Dewpoint: 19.0°C (66°F) [RH = 74%]
Pressure (altimeter): 30.03 inches Hg (1017.0 mb)
Winds: variable direction winds at 2 MPH (2 knots; 1.0 m/s)
Visibility: 0.99 miles (1.59 km)
Ceiling: at least 12,000 feet AGL
Clouds: sky clear below 12,000 feet AGL
Weather: BR  (mist)

METAR text: VOVZ 210330Z VRB02KT 1500 BR NSC 23/18 Q1017 BECMG 2000 HZ
Conditions at: VOVZ (VIZAGAPATAM , IN) observed 0330 UTC 21 January 2019
Temperature: 23.0°C (73°F)
Dewpoint: 18.0°C (64°F) [RH = 73%]
Pressure (altimeter): 30.03 inches Hg (1017.0 mb)
Winds: variable direction winds at 2 MPH (2 knots; 1.0 m/s)
Visibility: 0.93 miles (1.50 km)
Ceiling: at least 12,000 feet AGL
Clouds: sky clear below 12,000 feet AGL
Weather: BR  (mist)

METAR text: VOVZ 210300Z VRB02KT 1300 BR NSC 20/17 Q1017 BECMG 2000 BR
Conditions at: VOVZ (VIZAGAPATAM , IN) observed 0300 UTC 21 January 2019
Temperature: 20.0°C (68°F)
Dewpoint: 17.0°C (63°F) [RH = 83%]
Pressure (altimeter): 30.03 inches Hg (1017.0 mb)
Winds: variable direction winds at 2 MPH (2 knots; 1.0 m/s)
Visibility: 0.81 miles (1.30 km)
Ceiling: at least 12,000 feet AGL
Clouds: sky clear below 12,000 feet AGL
Weather: BR  (mist)

METAR text: VOVZ 210230Z VRB02KT 1100 BR NSC 18/15 Q1016 BECMG 1500 BR
Conditions at: VOVZ (VIZAGAPATAM , IN) observed 0230 UTC 21 January 2019
Temperature: 18.0°C (64°F)
Dewpoint: 15.0°C (59°F) [RH = 83%]
Pressure (altimeter): 30.00 inches Hg (1016.0 mb)
Winds: variable direction winds at 2 MPH (2 knots; 1.0 m/s)
Visibility: 0.68 miles (1.09 km)
Ceiling: at least 12,000 feet AGL
Clouds: sky clear below 12,000 feet AGL
Weather: BR  (mist)

METAR text: VOVZ 210200Z VRB02KT 1000 BR NSC 16/15 Q1016 BECMG 1500 BR
Conditions at: VOVZ (VIZAGAPATAM , IN) observed 0200 UTC 21 January 2019
Temperature: 16.0°C (61°F)
Dewpoint: 15.0°C (59°F) [RH = 94%]
Pressure (altimeter): 30.00 inches Hg (1016.0 mb)
Winds: variable direction winds at 2 MPH (2 knots; 1.0 m/s)
Visibility: 0.62 miles (1.00 km)
Ceiling: at least 12,000 feet AGL
Clouds: sky clear below 12,000 feet AGL
Weather: BR  (mist)

METAR text: VOVZ 210130Z 26004KT 0800 FG NSC 16/15 Q1015 NOSIG
Conditions at: VOVZ (VIZAGAPATAM , IN) observed 0130 UTC 21 January 2019
Temperature: 16.0°C (61°F)
Dewpoint: 15.0°C (59°F) [RH = 94%]
Pressure (altimeter): 29.97 inches Hg (1015.0 mb)
Winds: from the W (260 degrees) at 5 MPH (4 knots; 2.1 m/s)
Visibility: 0.50 miles (0.80 km)
Ceiling: at least 12,000 feet AGL
Clouds: sky clear below 12,000 feet AGL
Weather: FG  (fog)

METAR text: VOVZ 210100Z 30005KT 0800 FG NSC 15/14 Q1015 TEMPO 0600 FG
Conditions at: VOVZ (VIZAGAPATAM , IN) observed 0100 UTC 21 January 2019
Temperature: 15.0°C (59°F)
Dewpoint: 14.0°C (57°F) [RH = 94%]
Pressure (altimeter): 29.97 inches Hg (1015.0 mb)
Winds: from the WNW (300 degrees) at 6 MPH (5 knots; 2.6 m/s)
Visibility: 0.50 miles (0.80 km)
Ceiling: at least 12,000 feet AGL
Clouds: sky clear below 12,000 feet AGL
Weather: FG  (fog)

METAR text: VOVZ 210030Z 28004KT 1500 BR NSC 16/15 Q1014 TEMPO 1000 BR
Conditions at: VOVZ (VIZAGAPATAM , IN) observed 0030 UTC 21 January 2019
Temperature: 16.0°C (61°F)
Dewpoint: 15.0°C (59°F) [RH = 94%]
Pressure (altimeter): 29.94 inches Hg (1014.0 mb)
Winds: from the W (280 degrees) at 5 MPH (4 knots; 2.1 m/s)
Visibility: 0.93 miles (1.50 km)
Ceiling: at least 12,000 feet AGL
Clouds: sky clear below 12,000 feet AGL
Weather: BR  (mist)

METAR text: VOVZ 210000Z 29004KT 1800 BR NSC 17/16 Q1014 TEMPO 1500 BR
Conditions at: VOVZ (VIZAGAPATAM , IN) observed 0000 UTC 21 January 2019
Temperature: 17.0°C (63°F)
Dewpoint: 16.0°C (61°F) [RH = 94%]
Pressure (altimeter): 29.94 inches Hg (1014.0 mb)
Winds: from the WNW (290 degrees) at 5 MPH (4 knots; 2.1 m/s)
Visibility: 1.12 miles (1.80 km)
Ceiling: at least 12,000 feet AGL
Clouds: sky clear below 12,000 feet AGL
Weather: BR  (mist)

METAR text: VOVZ 202300Z VRB02KT 2500 BR NSC 17/16 Q1014 TEMPO 2000 BR
Conditions at: VOVZ (VIZAGAPATAM , IN) observed 2300 UTC 20 January 2019
Temperature: 17.0°C (63°F)
Dewpoint: 16.0°C (61°F) [RH = 94%]
Pressure (altimeter): 29.94 inches Hg (1014.0 mb)
Winds: variable direction winds at 2 MPH (2 knots; 1.0 m/s)
Visibility: 1.55 miles (2.49 km)
Ceiling: at least 12,000 feet AGL
Clouds: sky clear below 12,000 feet AGL
Weather: BR  (mist)

METAR text: VOVZ 202200Z VRB02KT 2500 BR NSC 18/16 Q1014 NOSIG
Conditions at: VOVZ (VIZAGAPATAM , IN) observed 2200 UTC 20 January 2019
Temperature: 18.0°C (64°F)
Dewpoint: 16.0°C (61°F) [RH = 88%]
Pressure (altimeter): 29.94 inches Hg (1014.0 mb)
Winds: variable direction winds at 2 MPH (2 knots; 1.0 m/s)
Visibility: 1.55 miles (2.49 km)
Ceiling: at least 12,000 feet AGL
Clouds: sky clear below 12,000 feet AGL
Weather: BR  (mist)

METAR text: VOVZ 202100Z 30003KT 2500 BR NSC 18/17 Q1014 NOSIG
Conditions at: VOVZ (VIZAGAPATAM , IN) observed 2100 UTC 20 January 2019
Temperature: 18.0°C (64°F)
Dewpoint: 17.0°C (63°F) [RH = 94%]
Pressure (altimeter): 29.94 inches Hg (1014.0 mb)
Winds: from the WNW (300 degrees) at 3 MPH (3 knots; 1.5 m/s)
Visibility: 1.55 miles (2.49 km)
Ceiling: at least 12,000 feet AGL
Clouds: sky clear below 12,000 feet AGL
Weather: BR  (mist)

METAR text: VOVZ 202000Z 29004KT 3000 BR NSC 19/17 Q1015 NOSIG
Conditions at: VOVZ (VIZAGAPATAM , IN) observed 2000 UTC 20 January 2019
Temperature: 19.0°C (66°F)
Dewpoint: 17.0°C (63°F) [RH = 88%]
Pressure (altimeter): 29.97 inches Hg (1015.0 mb)
Winds: from the WNW (290 degrees) at 5 MPH (4 knots; 2.1 m/s)
Visibility: 1.86 miles (2.99 km)
Ceiling: at least 12,000 feet AGL
Clouds: sky clear below 12,000 feet AGL
Weather: BR  (mist)

METAR text: VOVZ 201900Z 30004KT 3000 BR NSC 19/17 Q1015 NOSIG
Conditions at: VOVZ (VIZAGAPATAM , IN) observed 1900 UTC 20 January 2019
Temperature: 19.0°C (66°F)
Dewpoint: 17.0°C (63°F) [RH = 88%]
Pressure (altimeter): 29.97 inches Hg (1015.0 mb)
Winds: from the WNW (300 degrees) at 5 MPH (4 knots; 2.1 m/s)
Visibility: 1.86 miles (2.99 km)
Ceiling: at least 12,000 feet AGL
Clouds: sky clear below 12,000 feet AGL
Weather: BR  (mist)

METAR text: VOVZ 201800Z 31004KT 3000 BR NSC 19/17 Q1016 NOSIG
Conditions at: VOVZ (VIZAGAPATAM , IN) observed 1800 UTC 20 January 2019
Temperature: 19.0°C (66°F)
Dewpoint: 17.0°C (63°F) [RH = 88%]
Pressure (altimeter): 30.00 inches Hg (1016.0 mb)
Winds: from the NW (310 degrees) at 5 MPH (4 knots; 2.1 m/s)
Visibility: 1.86 miles (2.99 km)
Ceiling: at least 12,000 feet AGL
Clouds: sky clear below 12,000 feet AGL
Weather: BR  (mist)

METAR text: VOVZ 201700Z VRB02KT 3000 BR NSC 20/18 Q1016 NOSIG
Conditions at: VOVZ (VIZAGAPATAM , IN) observed 1700 UTC 20 January 2019
Temperature: 20.0°C (68°F)
Dewpoint: 18.0°C (64°F) [RH = 88%]
Pressure (altimeter): 30.00 inches Hg (1016.0 mb)
Winds: variable direction winds at 2 MPH (2 knots; 1.0 m/s)
Visibility: 1.86 miles (2.99 km)
Ceiling: at least 12,000 feet AGL
Clouds: sky clear below 12,000 feet AGL
Weather: BR  (mist)

METAR text: VOVZ 201630Z VRB02KT 3000 BR NSC 20/18 Q1016 NOSIG
Conditions at: VOVZ (VIZAGAPATAM , IN) observed 1630 UTC 20 January 2019
Temperature: 20.0°C (68°F)
Dewpoint: 18.0°C (64°F) [RH = 88%]
Pressure (altimeter): 30.00 inches Hg (1016.0 mb)
Winds: variable direction winds at 2 MPH (2 knots; 1.0 m/s)
Visibility: 1.86 miles (2.99 km)
Ceiling: at least 12,000 feet AGL
Clouds: sky clear below 12,000 feet AGL
Weather: BR  (mist)

METAR text: VOVZ 201600Z 00000KT 3200 BR NSC 20/18 Q1016 NOSIG
Conditions at: VOVZ (VIZAGAPATAM , IN) observed 1600 UTC 20 January 2019
Temperature: 20.0°C (68°F)
Dewpoint: 18.0°C (64°F) [RH = 88%]
Pressure (altimeter): 30.00 inches Hg (1016.0 mb)
Winds: calm
Visibility: 1.99 miles (3.20 km)
Ceiling: at least 12,000 feet AGL
Clouds: sky clear below 12,000 feet AGL
Weather: BR  (mist)

METAR text: VOVZ 201530Z 33003KT 3200 BR NSC 21/18 Q1016 NOSIG
Conditions at: VOVZ (VIZAGAPATAM , IN) observed 1530 UTC 20 January 2019
Temperature: 21.0°C (70°F)
Dewpoint: 18.0°C (64°F) [RH = 83%]
Pressure (altimeter): 30.00 inches Hg (1016.0 mb)
Winds: from the NNW (330 degrees) at 3 MPH (3 knots; 1.5 m/s)
Visibility: 1.99 miles (3.20 km)
Ceiling: at least 12,000 feet AGL
Clouds: sky clear below 12,000 feet AGL
Weather: BR  (mist)

METAR text: VOVZ 201500Z VRB02KT 3500 BR NSC 21/18 Q1016 NOSIG
Conditions at: VOVZ (VIZAGAPATAM , IN) observed 1500 UTC 20 January 2019
Temperature: 21.0°C (70°F)
Dewpoint: 18.0°C (64°F) [RH = 83%]
Pressure (altimeter): 30.00 inches Hg (1016.0 mb)
Winds: variable direction winds at 2 MPH (2 knots; 1.0 m/s)
Visibility: 2.17 miles (3.49 km)
Ceiling: at least 12,000 feet AGL
Clouds: sky clear below 12,000 feet AGL
Weather: BR  (mist)

METAR text: VOVZ 201430Z VRB02KT 3500 BR NSC 21/19 Q1016 NOSIG
Conditions at: VOVZ (VIZAGAPATAM , IN) observed 1430 UTC 20 January 2019
Temperature: 21.0°C (70°F)
Dewpoint: 19.0°C (66°F) [RH = 88%]
Pressure (altimeter): 30.00 inches Hg (1016.0 mb)
Winds: variable direction winds at 2 MPH (2 knots; 1.0 m/s)
Visibility: 2.17 miles (3.49 km)
Ceiling: at least 12,000 feet AGL
Clouds: sky clear below 12,000 feet AGL
Weather: BR  (mist)

METAR text: VOVZ 201400Z VRB02KT 3600 BR NSC 22/18 Q1015 NOSIG
Conditions at: VOVZ (VIZAGAPATAM , IN) observed 1400 UTC 20 January 2019
Temperature: 22.0°C (72°F)
Dewpoint: 18.0°C (64°F) [RH = 78%]
Pressure (altimeter): 29.97 inches Hg (1015.0 mb)
Winds: variable direction winds at 2 MPH (2 knots; 1.0 m/s)
Visibility: 2.24 miles (3.60 km)
Ceiling: at least 12,000 feet AGL
Clouds: sky clear below 12,000 feet AGL
Weather: BR  (mist)

METAR text: VOVZ 201330Z VRB02KT 3800 HZ NSC 23/18 Q1015 NOSIG
Conditions at: VOVZ (VIZAGAPATAM , IN) observed 1330 UTC 20 January 2019
Temperature: 23.0°C (73°F)
Dewpoint: 18.0°C (64°F) [RH = 73%]
Pressure (altimeter): 29.97 inches Hg (1015.0 mb)
Winds: variable direction winds at 2 MPH (2 knots; 1.0 m/s)
Visibility: 2.36 miles (3.80 km)
Ceiling: at least 12,000 feet AGL
Clouds: sky clear below 12,000 feet AGL
Weather: HZ  (haze)

METAR text: VOVZ 201300Z VRB02KT 3800 HZ FU NSC 24/19 Q1014 NOSIG
Conditions at: VOVZ (VIZAGAPATAM , IN) observed 1300 UTC 20 January 2019
Temperature: 24.0°C (75°F)
Dewpoint: 19.0°C (66°F) [RH = 74%]
Pressure (altimeter): 29.94 inches Hg (1014.0 mb)
Winds: variable direction winds at 2 MPH (2 knots; 1.0 m/s)
Visibility: 2.36 miles (3.80 km)
Ceiling: at least 12,000 feet AGL
Clouds: sky clear below 12,000 feet AGL
Weather: HZ FU  (haze, smoke)

METAR text: VOVZ 201230Z VRB02KT 3800 HZ FU NSC 24/19 Q1014 NOSIG
Conditions at: VOVZ (VIZAGAPATAM , IN) observed 1230 UTC 20 January 2019
Temperature: 24.0°C (75°F)
Dewpoint: 19.0°C (66°F) [RH = 74%]
Pressure (altimeter): 29.94 inches Hg (1014.0 mb)
Winds: variable direction winds at 2 MPH (2 knots; 1.0 m/s)
Visibility: 2.36 miles (3.80 km)
Ceiling: at least 12,000 feet AGL
Clouds: sky clear below 12,000 feet AGL
Weather: HZ FU  (haze, smoke)

METAR text: VOVZ 201200Z 15005KT 4000 HZ FU NSC 25/19 Q1014 NOSIG
Conditions at: VOVZ (VIZAGAPATAM , IN) observed 1200 UTC 20 January 2019
Temperature: 25.0°C (77°F)
Dewpoint: 19.0°C (66°F) [RH = 69%]
Pressure (altimeter): 29.94 inches Hg (1014.0 mb)
Winds: from the SSE (150 degrees) at 6 MPH (5 knots; 2.6 m/s)
Visibility: 2.49 miles (4.01 km)
Ceiling: at least 12,000 feet AGL
Clouds: sky clear below 12,000 feet AGL
Weather: HZ FU  (haze, smoke)

METAR text: VOVZ 201130Z 14008KT 4000 HZ FU NSC 27/19 Q1014 NOSIG
Conditions at: VOVZ (VIZAGAPATAM , IN) observed 1130 UTC 20 January 2019
Temperature: 27.0°C (81°F)
Dewpoint: 19.0°C (66°F) [RH = 62%]
Pressure (altimeter): 29.94 inches Hg (1014.0 mb)
Winds: from the SE (140 degrees) at 9 MPH (8 knots; 4.1 m/s)
Visibility: 2.49 miles (4.01 km)
Ceiling: at least 12,000 feet AGL
Clouds: sky clear below 12,000 feet AGL
Weather: HZ FU  (haze, smoke)

METAR text: VOVZ 201100Z 14008KT 4000 HZ FU NSC 27/19 Q1014 NOSIG
Conditions at: VOVZ (VIZAGAPATAM , IN) observed 1100 UTC 20 January 2019
Temperature: 27.0°C (81°F)
Dewpoint: 19.0°C (66°F) [RH = 62%]
Pressure (altimeter): 29.94 inches Hg (1014.0 mb)
Winds: from the SE (140 degrees) at 9 MPH (8 knots; 4.1 m/s)
Visibility: 2.49 miles (4.01 km)
Ceiling: at least 12,000 feet AGL
Clouds: sky clear below 12,000 feet AGL
Weather: HZ FU  (haze, smoke)

METAR text: VOVZ 201030Z 12009KT 4000 HZ FU NSC 27/19 Q1014 NOSIG
Conditions at: VOVZ (VIZAGAPATAM , IN) observed 1030 UTC 20 January 2019
Temperature: 27.0°C (81°F)
Dewpoint: 19.0°C (66°F) [RH = 62%]
Pressure (altimeter): 29.94 inches Hg (1014.0 mb)
Winds: from the ESE (120 degrees) at 10 MPH (9 knots; 4.6 m/s)
Visibility: 2.49 miles (4.01 km)
Ceiling: at least 12,000 feet AGL
Clouds: sky clear below 12,000 feet AGL
Weather: HZ FU  (haze, smoke)

METAR text: VOVZ 201000Z 12009KT 4000 HZ FU NSC 27/19 Q1014 NOSIG
Conditions at: VOVZ (VIZAGAPATAM , IN) observed 1000 UTC 20 January 2019
Temperature: 27.0°C (81°F)
Dewpoint: 19.0°C (66°F) [RH = 62%]
Pressure (altimeter): 29.94 inches Hg (1014.0 mb)
Winds: from the ESE (120 degrees) at 10 MPH (9 knots; 4.6 m/s)
Visibility: 2.49 miles (4.01 km)
Ceiling: at least 12,000 feet AGL
Clouds: sky clear below 12,000 feet AGL
Weather: HZ FU  (haze, smoke)

METAR text: VOVZ 200930Z 11009KT 4000 HZ FU NSC 27/19 Q1014 NOSIG
Conditions at: VOVZ (VIZAGAPATAM , IN) observed 0930 UTC 20 January 2019
Temperature: 27.0°C (81°F)
Dewpoint: 19.0°C (66°F) [RH = 62%]
Pressure (altimeter): 29.94 inches Hg (1014.0 mb)
Winds: from the ESE (110 degrees) at 10 MPH (9 knots; 4.6 m/s)
Visibility: 2.49 miles (4.01 km)
Ceiling: at least 12,000 feet AGL
Clouds: sky clear below 12,000 feet AGL
Weather: HZ FU  (haze, smoke)

METAR text: VOVZ 200900Z 12008KT 4000 HZ FU NSC 28/20 Q1014 NOSIG
Conditions at: VOVZ (VIZAGAPATAM , IN) observed 0900 UTC 20 January 2019
Temperature: 28.0°C (82°F)
Dewpoint: 20.0°C (68°F) [RH = 62%]
Pressure (altimeter): 29.94 inches Hg (1014.0 mb)
Winds: from the ESE (120 degrees) at 9 MPH (8 knots; 4.1 m/s)
Visibility: 2.49 miles (4.01 km)
Ceiling: at least 12,000 feet AGL
Clouds: sky clear below 12,000 feet AGL
Weather: HZ FU  (haze, smoke)

METAR text: VOVZ 200830Z 12010KT 4000 HZ FU NSC 28/18 Q1014 NOSIG
Conditions at: VOVZ (VIZAGAPATAM , IN) observed 0830 UTC 20 January 2019
Temperature: 28.0°C (82°F)
Dewpoint: 18.0°C (64°F) [RH = 55%]
Pressure (altimeter): 29.94 inches Hg (1014.0 mb)
Winds: from the ESE (120 degrees) at 12 MPH (10 knots; 5.1 m/s)
Visibility: 2.49 miles (4.01 km)
Ceiling: at least 12,000 feet AGL
Clouds: sky clear below 12,000 feet AGL
Weather: HZ FU  (haze, smoke)

METAR text: VOVZ 200800Z 12010KT 4000 HZ FU NSC 29/19 Q1014 NOSIG
Conditions at: VOVZ (VIZAGAPATAM , IN) observed 0800 UTC 20 January 2019
Temperature: 29.0°C (84°F)
Dewpoint: 19.0°C (66°F) [RH = 55%]
Pressure (altimeter): 29.94 inches Hg (1014.0 mb)
Winds: from the ESE (120 degrees) at 12 MPH (10 knots; 5.1 m/s)
Visibility: 2.49 miles (4.01 km)
Ceiling: at least 12,000 feet AGL
Clouds: sky clear below 12,000 feet AGL
Weather: HZ FU  (haze, smoke)

METAR text: VOVZ 200730Z 12008KT 3500 HZ FU NSC 30/19 Q1015 BECMG 4000 HZ FU
Conditions at: VOVZ (VIZAGAPATAM , IN) observed 0730 UTC 20 January 2019
Temperature: 30.0°C (86°F)
Dewpoint: 19.0°C (66°F) [RH = 52%]
Pressure (altimeter): 29.97 inches Hg (1015.0 mb)
Winds: from the ESE (120 degrees) at 9 MPH (8 knots; 4.1 m/s)
Visibility: 2.17 miles (3.49 km)
Ceiling: at least 12,000 feet AGL
Clouds: sky clear below 12,000 feet AGL
Weather: HZ FU  (haze, smoke)

METAR text: VOVZ 200700Z 13010KT 3500 HZ FU FEW018 30/19 Q1016 NOSIG
Conditions at: VOVZ (VIZAGAPATAM , IN) observed 0700 UTC 20 January 2019
Temperature: 30.0°C (86°F)
Dewpoint: 19.0°C (66°F) [RH = 52%]
Pressure (altimeter): 30.00 inches Hg (1016.0 mb)
Winds: from the SE (130 degrees) at 12 MPH (10 knots; 5.1 m/s)
Visibility: 2.17 miles (3.49 km)
Ceiling: at least 12,000 feet AGL
Clouds: few clouds at 1800 feet AGL
Weather: HZ FU  (haze, smoke)

METAR text: VOVZ 200630Z 13008KT 3500 HZ FU FEW018 29/19 Q1016 NOSIG
Conditions at: VOVZ (VIZAGAPATAM , IN) observed 0630 UTC 20 January 2019
Temperature: 29.0°C (84°F)
Dewpoint: 19.0°C (66°F) [RH = 55%]
Pressure (altimeter): 30.00 inches Hg (1016.0 mb)
Winds: from the SE (130 degrees) at 9 MPH (8 knots; 4.1 m/s)
Visibility: 2.17 miles (3.49 km)
Ceiling: at least 12,000 feet AGL
Clouds: few clouds at 1800 feet AGL
Weather: HZ FU  (haze, smoke)

METAR text: VOVZ 200600Z 06006KT 3500 HZ FU FEW018 28/18 Q1017 BECMG 4000 HZ FU
Conditions at: VOVZ (VIZAGAPATAM , IN) observed 0600 UTC 20 January 2019
Temperature: 28.0°C (82°F)
Dewpoint: 18.0°C (64°F) [RH = 55%]
Pressure (altimeter): 30.03 inches Hg (1017.0 mb)
Winds: from the ENE (60 degrees) at 7 MPH (6 knots; 3.1 m/s)
Visibility: 2.17 miles (3.49 km)
Ceiling: at least 12,000 feet AGL
Clouds: few clouds at 1800 feet AGL
Weather: HZ FU  (haze, smoke)

METAR text: VOVZ 200530Z 34006KT 3000 HZ FU FEW018 28/19 Q1017 NOSIG
Conditions at: VOVZ (VIZAGAPATAM , IN) observed 0530 UTC 20 January 2019
Temperature: 28.0°C (82°F)
Dewpoint: 19.0°C (66°F) [RH = 58%]
Pressure (altimeter): 30.03 inches Hg (1017.0 mb)
Winds: from the NNW (340 degrees) at 7 MPH (6 knots; 3.1 m/s)
Visibility: 1.86 miles (2.99 km)
Ceiling: at least 12,000 feet AGL
Clouds: few clouds at 1800 feet AGL
Weather: HZ FU  (haze, smoke)

METAR text: VOVZ 200500Z 31005KT 3000 HZ FU FEW018 27/19 Q1018 NOSIG
Conditions at: VOVZ (VIZAGAPATAM , IN) observed 0500 UTC 20 January 2019
Temperature: 27.0°C (81°F)
Dewpoint: 19.0°C (66°F) [RH = 62%]
Pressure (altimeter): 30.06 inches Hg (1018.0 mb)
Winds: from the NW (310 degrees) at 6 MPH (5 knots; 2.6 m/s)
Visibility: 1.86 miles (2.99 km)
Ceiling: at least 12,000 feet AGL
Clouds: few clouds at 1800 feet AGL
Weather: HZ FU  (haze, smoke)

METAR text: VOVZ 200430Z 29003KT 2500 HZ FU NSC 26/19 Q1018 BECMG 3000 HZ FU
Conditions at: VOVZ (VIZAGAPATAM , IN) observed 0430 UTC 20 January 2019
Temperature: 26.0°C (79°F)
Dewpoint: 19.0°C (66°F) [RH = 65%]
Pressure (altimeter): 30.06 inches Hg (1018.0 mb)
Winds: from the WNW (290 degrees) at 3 MPH (3 knots; 1.5 m/s)
Visibility: 1.55 miles (2.49 km)
Ceiling: at least 12,000 feet AGL
Clouds: sky clear below 12,000 feet AGL
Weather: HZ FU  (haze, smoke)

METAR text: VOVZ 200400Z 32005KT 2500 HZ FU NSC 25/19 Q1018 NOSIG
Conditions at: VOVZ (VIZAGAPATAM , IN) observed 0400 UTC 20 January 2019
Temperature: 25.0°C (77°F)
Dewpoint: 19.0°C (66°F) [RH = 69%]
Pressure (altimeter): 30.06 inches Hg (1018.0 mb)
Winds: from the NW (320 degrees) at 6 MPH (5 knots; 2.6 m/s)
Visibility: 1.55 miles (2.49 km)
Ceiling: at least 12,000 feet AGL
Clouds: sky clear below 12,000 feet AGL
Weather: HZ FU  (haze, smoke)

METAR text: VOVZ 200330Z 33005KT 2300 HZ NSC 24/18 Q1018 NOSIG
Conditions at: VOVZ (VIZAGAPATAM , IN) observed 0330 UTC 20 January 2019
Temperature: 24.0°C (75°F)
Dewpoint: 18.0°C (64°F) [RH = 69%]
Pressure (altimeter): 30.06 inches Hg (1018.0 mb)
Winds: from the NNW (330 degrees) at 6 MPH (5 knots; 2.6 m/s)
Visibility: 1.43 miles (2.30 km)
Ceiling: at least 12,000 feet AGL
Clouds: sky clear below 12,000 feet AGL
Weather: HZ  (haze)

METAR text: VOVZ 200300Z 33004KT 2000 BR NSC 21/18 Q1018 NOSIG
Conditions at: VOVZ (VIZAGAPATAM , IN) observed 0300 UTC 20 January 2019
Temperature: 21.0°C (70°F)
Dewpoint: 18.0°C (64°F) [RH = 83%]
Pressure (altimeter): 30.06 inches Hg (1018.0 mb)
Winds: from the NNW (330 degrees) at 5 MPH (4 knots; 2.1 m/s)
Visibility: 1.24 miles (2.00 km)
Ceiling: at least 12,000 feet AGL
Clouds: sky clear below 12,000 feet AGL
Weather: BR  (mist)

METAR text: VOVZ 200230Z VRB02KT 1500 BR NSC 19/17 Q1018 BECMG 2000 BR
Conditions at: VOVZ (VIZAGAPATAM , IN) observed 0230 UTC 20 January 2019
Temperature: 19.0°C (66°F)
Dewpoint: 17.0°C (63°F) [RH = 88%]
Pressure (altimeter): 30.06 inches Hg (1018.0 mb)
Winds: variable direction winds at 2 MPH (2 knots; 1.0 m/s)
Visibility: 0.93 miles (1.50 km)
Ceiling: at least 12,000 feet AGL
Clouds: sky clear below 12,000 feet AGL
Weather: BR  (mist)

METAR text: VOVZ 200200Z VRB02KT 1100 BR NSC 18/17 Q1017 BECMG 1500 BR
Conditions at: VOVZ (VIZAGAPATAM , IN) observed 0200 UTC 20 January 2019
Temperature: 18.0°C (64°F)
Dewpoint: 17.0°C (63°F) [RH = 94%]
Pressure (altimeter): 30.03 inches Hg (1017.0 mb)
Winds: variable direction winds at 2 MPH (2 knots; 1.0 m/s)
Visibility: 0.68 miles (1.09 km)
Ceiling: at least 12,000 feet AGL
Clouds: sky clear below 12,000 feet AGL
Weather: BR  (mist)

METAR text: VOVZ 200130Z VRB02KT 1000 BR FEW018 17/16 Q1016 TEMPO 0800 FG
Conditions at: VOVZ (VIZAGAPATAM , IN) observed 0130 UTC 20 January 2019
Temperature: 17.0°C (63°F)
Dewpoint: 16.0°C (61°F) [RH = 94%]
Pressure (altimeter): 30.00 inches Hg (1016.0 mb)
Winds: variable direction winds at 2 MPH (2 knots; 1.0 m/s)
Visibility: 0.62 miles (1.00 km)
Ceiling: at least 12,000 feet AGL
Clouds: few clouds at 1800 feet AGL
Weather: BR  (mist)

METAR text: VOVZ 200100Z VRB02KT 1100 BR NSC 17/16 Q1016 TEMPO 0800 FG
Conditions at: VOVZ (VIZAGAPATAM , IN) observed 0100 UTC 20 January 2019
Temperature: 17.0°C (63°F)
Dewpoint: 16.0°C (61°F) [RH = 94%]
Pressure (altimeter): 30.00 inches Hg (1016.0 mb)
Winds: variable direction winds at 2 MPH (2 knots; 1.0 m/s)
Visibility: 0.68 miles (1.09 km)
Ceiling: at least 12,000 feet AGL
Clouds: sky clear below 12,000 feet AGL
Weather: BR  (mist)

METAR text: VOVZ 200030Z 28003KT 1500 BR NSC 17/16 Q1016 TEMPO 0800 FG
Conditions at: VOVZ (VIZAGAPATAM , IN) observed 0030 UTC 20 January 2019
Temperature: 17.0°C (63°F)
Dewpoint: 16.0°C (61°F) [RH = 94%]
Pressure (altimeter): 30.00 inches Hg (1016.0 mb)
Winds: from the W (280 degrees) at 3 MPH (3 knots; 1.5 m/s)
Visibility: 0.93 miles (1.50 km)
Ceiling: at least 12,000 feet AGL
Clouds: sky clear below 12,000 feet AGL
Weather: BR  (mist)

METAR text: VOVZ 200000Z 27003KT 2000 BR NSC 17/17 Q1015 TEMPO 1500 BR
Conditions at: VOVZ (VIZAGAPATAM , IN) observed 0000 UTC 20 January 2019
Temperature: 17.0°C (63°F)
Dewpoint: 17.0°C (63°F) [RH = 100%]
Pressure (altimeter): 29.97 inches Hg (1015.0 mb)
Winds: from the W (270 degrees) at 3 MPH (3 knots; 1.5 m/s)
Visibility: 1.24 miles (2.00 km)
Ceiling: at least 12,000 feet AGL
Clouds: sky clear below 12,000 feet AGL
Weather: BR  (mist)

METAR text: VOVZ 192330Z 27003KT 2000 BR NSC 18/17 Q1015 TEMPO 1500 BR
Conditions at: VOVZ (VIZAGAPATAM , IN) observed 2330 UTC 19 January 2019
Temperature: 18.0°C (64°F)
Dewpoint: 17.0°C (63°F) [RH = 94%]
Pressure (altimeter): 29.97 inches Hg (1015.0 mb)
Winds: from the W (270 degrees) at 3 MPH (3 knots; 1.5 m/s)
Visibility: 1.24 miles (2.00 km)
Ceiling: at least 12,000 feet AGL
Clouds: sky clear below 12,000 feet AGL
Weather: BR  (mist)

METAR text: VOVZ 192300Z 31005KT 2000 BR NSC 18/17 Q1015 TEMPO 1500 BR
Conditions at: VOVZ (VIZAGAPATAM , IN) observed 2300 UTC 19 January 2019
Temperature: 18.0°C (64°F)
Dewpoint: 17.0°C (63°F) [RH = 94%]
Pressure (altimeter): 29.97 inches Hg (1015.0 mb)
Winds: from the NW (310 degrees) at 6 MPH (5 knots; 2.6 m/s)
Visibility: 1.24 miles (2.00 km)
Ceiling: at least 12,000 feet AGL
Clouds: sky clear below 12,000 feet AGL
Weather: BR  (mist)

METAR text: VOVZ 192200Z 31005KT 2000 BR NSC 18/17 Q1015 TEMPO 1500 BR
Conditions at: VOVZ (VIZAGAPATAM , IN) observed 2200 UTC 19 January 2019
Temperature: 18.0°C (64°F)
Dewpoint: 17.0°C (63°F) [RH = 94%]
Pressure (altimeter): 29.97 inches Hg (1015.0 mb)
Winds: from the NW (310 degrees) at 6 MPH (5 knots; 2.6 m/s)
Visibility: 1.24 miles (2.00 km)
Ceiling: at least 12,000 feet AGL
Clouds: sky clear below 12,000 feet AGL
Weather: BR  (mist)

METAR text: VOVZ 192100Z VRB02KT 2500 BR NSC 18/17 Q1015 NOSIG
Conditions at: VOVZ (VIZAGAPATAM , IN) observed 2100 UTC 19 January 2019
Temperature: 18.0°C (64°F)
Dewpoint: 17.0°C (63°F) [RH = 94%]
Pressure (altimeter): 29.97 inches Hg (1015.0 mb)
Winds: variable direction winds at 2 MPH (2 knots; 1.0 m/s)
Visibility: 1.55 miles (2.49 km)
Ceiling: at least 12,000 feet AGL
Clouds: sky clear below 12,000 feet AGL
Weather: BR  (mist)

METAR text: VOVZ 192000Z VRB02KT 2500 BR NSC 19/17 Q1015 NOSIG
Conditions at: VOVZ (VIZAGAPATAM , IN) observed 2000 UTC 19 January 2019
Temperature: 19.0°C (66°F)
Dewpoint: 17.0°C (63°F) [RH = 88%]
Pressure (altimeter): 29.97 inches Hg (1015.0 mb)
Winds: variable direction winds at 2 MPH (2 knots; 1.0 m/s)
Visibility: 1.55 miles (2.49 km)
Ceiling: at least 12,000 feet AGL
Clouds: sky clear below 12,000 feet AGL
Weather: BR  (mist)

METAR text: VOVZ 191900Z VRB02KT 2600 BR NSC 19/17 Q1016 NOSIG
Conditions at: VOVZ (VIZAGAPATAM , IN) observed 1900 UTC 19 January 2019
Temperature: 19.0°C (66°F)
Dewpoint: 17.0°C (63°F) [RH = 88%]
Pressure (altimeter): 30.00 inches Hg (1016.0 mb)
Winds: variable direction winds at 2 MPH (2 knots; 1.0 m/s)
Visibility: 1.62 miles (2.61 km)
Ceiling: at least 12,000 feet AGL
Clouds: sky clear below 12,000 feet AGL
Weather: BR  (mist)

METAR text: VOVZ 191800Z 00000KT 3000 BR NSC 20/17 Q1016 NOSIG
Conditions at: VOVZ (VIZAGAPATAM , IN) observed 1800 UTC 19 January 2019
Temperature: 20.0°C (68°F)
Dewpoint: 17.0°C (63°F) [RH = 83%]
Pressure (altimeter): 30.00 inches Hg (1016.0 mb)
Winds: calm
Visibility: 1.86 miles (2.99 km)
Ceiling: at least 12,000 feet AGL
Clouds: sky clear below 12,000 feet AGL
Weather: BR  (mist)

METAR text: VOVZ 191730Z 00000KT 3000 BR NSC 20/17 Q1016 NOSIG
Conditions at: VOVZ (VIZAGAPATAM , IN) observed 1730 UTC 19 January 2019
Temperature: 20.0°C (68°F)
Dewpoint: 17.0°C (63°F) [RH = 83%]
Pressure (altimeter): 30.00 inches Hg (1016.0 mb)
Winds: calm
Visibility: 1.86 miles (2.99 km)
Ceiling: at least 12,000 feet AGL
Clouds: sky clear below 12,000 feet AGL
Weather: BR  (mist)

Forecast for: VOVZ (VIZAGAPATAM , IN)
Text: TAF VOVZ 210500Z 2106/2115 VRB02KT 2000 HZ NSC
Forecast period: 0600 to 1500 UTC 21 January 2019
Forecast type: FROM: standard forecast or significant change
Winds: variable direction winds at 2 MPH (2 knots; 1.0 m/s)
Visibility: 1.24 miles (2.00 km)
Ceiling: unknown
Clouds: missing
Weather: HZ  (haze)
Text: BECMG 2106/2108 13010KT 3500 HZ FU
Forecast period: 0600 to 1500 UTC 21 January 2019
Forecast type: BECOMING: Conditions expected to become as follows by 0800 UTC 21 January 2019
Winds: from the SE (130 degrees) at 12 MPH (10 knots; 5.1 m/s)
Visibility: 2.17 miles (3.49 km)
Ceiling: unknown
Clouds: missing
Weather: HZ FU  (haze, smoke)